Time;durP1;ratioP1;P1;durP2;ratioP2;P2;SDS_P1;SDS_P2;PMS_P1;PMS_P2;Temp;Humidity;BMP_temperature;BMP_pressure;BME280_temperature;BME280_humidity;BME280_pressure;Samples;Min_cycle;Max_cycle;Signal;HPM_P1;HPM_P2
2022/09/05 00:02:03;;;;;;;7.53;3.40;;;;;;;17.63;74.11;101701.03;5052157;28;20410;-90
2022/09/05 00:05:08;;;;;;;11.90;3.90;;;;;;;17.62;72.94;101697.44;5052456;28;20025;-89
2022/09/05 00:07:46;;;;;;;7.45;3.92;;;;;;;17.53;74.50;101696.97;5054064;28;20078;-89
2022/09/05 00:10:37;;;;;;;9.57;3.90;;;;;;;17.45;73.58;101694.59;5052640;28;20128;-89
2022/09/05 00:13:12;;;;;;;7.25;3.78;;;;;;;17.39;74.72;101694.72;5052807;28;20036;-89
2022/09/05 00:16:28;;;;;;;10.10;3.80;;;;;;;17.36;74.10;101693.28;5053657;28;20103;-88
2022/09/05 00:19:09;;;;;;;8.13;4.10;;;;;;;17.33;74.07;101689.13;5051990;28;20056;-89
2022/09/05 00:22:10;;;;;;;10.93;3.90;;;;;;;17.29;74.09;101703.56;5052413;28;20478;-89
2022/09/05 00:24:52;;;;;;;7.68;3.42;;;;;;;17.23;75.18;101697.13;5052270;28;20021;-89
2022/09/05 00:27:43;;;;;;;8.48;3.55;;;;;;;17.17;73.51;101690.69;5052097;28;20063;-88
2022/09/05 00:30:18;;;;;;;5.20;3.40;;;;;;;17.13;74.94;101694.16;5052522;28;20563;-88
2022/09/05 00:33:00;;;;;;;6.88;3.70;;;;;;;17.10;74.21;101689.16;5035218;28;20097;-88
2022/09/05 00:36:00;;;;;;;7.22;3.50;;;;;;;17.11;74.61;101690.81;5052104;28;20036;-89
2022/09/05 00:38:27;;;;;;;8.40;3.90;;;;;;;17.09;76.78;101690.22;5053375;28;20091;-89
2022/09/05 00:41:11;;;;;;;11.00;3.88;;;;;;;17.05;76.32;101687.13;5051894;28;20041;-89
2022/09/05 00:43:43;;;;;;;11.93;3.50;;;;;;;17.03;76.38;101697.47;5052451;28;20045;-89
2022/09/05 00:46:26;;;;;;;8.93;3.63;;;;;;;16.99;75.57;101693.53;5052142;28;20475;-89
2022/09/05 00:49:40;;;;;;;8.25;4.47;;;;;;;16.91;75.02;101686.50;5052216;28;20052;-88
2022/09/05 00:52:14;;;;;;;7.25;3.95;;;;;;;16.84;74.66;101685.75;5043136;28;20149;-89
2022/09/05 00:54:59;;;;;;;7.05;3.58;;;;;;;16.84;76.85;101683.88;5052796;28;20535;-88
2022/09/05 00:57:49;;;;;;;7.40;4.07;;;;;;;16.86;76.13;101683.63;5052245;28;20072;-88
2022/09/05 01:00:21;;;;;;;14.63;4.30;;;;;;;16.84;76.03;101678.38;5052390;28;20387;-88
2022/09/05 01:03:14;;;;;;;8.68;4.13;;;;;;;16.80;76.71;101684.56;5051519;28;20079;-89
2022/09/05 01:05:48;;;;;;;7.95;3.97;;;;;;;16.82;77.21;101691.47;5052173;28;20064;-89
2022/09/05 01:08:50;;;;;;;12.07;4.00;;;;;;;16.80;76.01;101682.69;5051879;28;20035;-89
2022/09/05 01:11:34;;;;;;;11.03;4.30;;;;;;;16.78;76.63;101675.75;5051980;28;20032;-88
2022/09/05 01:14:27;;;;;;;8.52;4.28;;;;;;;16.80;77.38;101687.28;5052139;28;20036;-88
2022/09/05 01:17:21;;;;;;;7.95;4.00;;;;;;;16.76;77.00;101681.47;5051885;28;20039;-88
2022/09/05 01:20:27;;;;;;;6.95;3.78;;;;;;;16.72;77.48;101688.50;5052461;28;20021;-88
2022/09/05 01:23:07;;;;;;;9.65;3.88;;;;;;;16.71;78.09;101680.50;5031241;28;20120;-88
2022/09/05 01:25:42;;;;;;;10.03;4.53;;;;;;;16.67;78.78;101680.97;5051763;28;20025;-88
2022/09/05 01:28:17;;;;;;;11.02;4.18;;;;;;;16.63;77.36;101685.25;5052293;28;20515;-88
2022/09/05 01:30:46;;;;;;;9.20;4.40;;;;;;;16.63;78.16;101677.03;5054854;28;20055;-89
2022/09/05 01:33:37;;;;;;;11.40;4.18;;;;;;;16.62;77.52;101686.34;5055146;28;20047;-89
2022/09/05 01:36:26;;;;;;;11.32;4.28;;;;;;;16.60;77.99;101682.16;5055483;28;20524;-88
2022/09/05 01:39:03;;;;;;;8.63;4.70;;;;;;;16.58;78.52;101684.28;5049682;28;20481;-89
2022/09/05 01:41:50;;;;;;;11.60;4.13;;;;;;;16.57;79.69;101677.97;5058831;28;20107;-89
2022/09/05 01:44:25;;;;;;;8.93;4.60;;;;;;;16.52;78.78;101677.00;5078466;28;20032;-88
2022/09/05 01:47:15;;;;;;;11.15;4.82;;;;;;;16.46;77.84;101674.16;5078697;28;20040;-88
2022/09/05 01:50:31;;;;;;;15.05;4.35;;;;;;;16.45;78.35;101674.41;5078650;28;20039;-88
2022/09/05 01:53:24;;;;;;;10.33;4.83;;;;;;;16.40;78.63;101674.25;5078650;28;20032;-88
2022/09/05 01:56:20;;;;;;;17.25;5.32;;;;;;;16.40;78.56;101679.72;5078606;28;20414;-89
2022/09/05 01:59:19;;;;;;;12.82;4.78;;;;;;;16.37;79.17;101678.31;5078395;28;20024;-89
2022/09/05 02:02:05;;;;;;;12.95;4.90;;;;;;;16.33;79.44;101682.59;5078169;28;20126;-89
2022/09/05 02:04:40;;;;;;;12.10;5.32;;;;;;;16.31;79.56;101681.97;5096441;28;20047;-89
2022/09/05 02:07:25;;;;;;;12.40;5.23;;;;;;;16.32;79.84;101680.91;5078765;28;20134;-88
2022/09/05 02:10:14;;;;;;;6.95;4.30;;;;;;;16.29;79.10;101678.63;5079001;28;20028;-89
2022/09/05 02:12:56;;;;;;;9.55;4.80;;;;;;;16.28;79.25;101682.44;5078268;28;20077;-89
2022/09/05 02:15:25;;;;;;;9.10;4.55;;;;;;;16.27;79.94;101676.13;5078475;28;20054;-88
2022/09/05 02:17:56;;;;;;;9.52;5.18;;;;;;;16.19;79.79;101681.94;5078368;28;20032;-88
2022/09/05 02:20:32;;;;;;;10.03;4.70;;;;;;;16.20;79.90;101688.25;5096166;28;20032;-89
2022/09/05 02:23:06;;;;;;;9.68;4.90;;;;;;;16.18;80.94;101684.91;5078149;28;20051;-88
2022/09/05 02:26:02;;;;;;;8.25;4.95;;;;;;;16.17;80.20;101683.25;5078047;28;20126;-88
2022/09/05 02:28:38;;;;;;;9.13;5.43;;;;;;;16.15;80.97;101694.44;5077793;28;20038;-88
2022/09/05 02:31:18;;;;;;;7.28;4.88;;;;;;;16.10;80.58;101692.38;5078634;28;20032;-88
2022/09/05 02:34:08;;;;;;;12.53;5.57;;;;;;;16.06;79.87;101693.91;5095946;28;20107;-89
2022/09/05 02:37:07;;;;;;;11.48;5.25;;;;;;;16.06;80.20;101699.38;5067865;28;20043;-89
2022/09/05 02:39:43;;;;;;;9.80;5.30;;;;;;;16.01;81.28;101690.19;5078074;28;20110;-90
2022/09/05 02:42:15;;;;;;;7.53;5.57;;;;;;;15.98;80.86;101691.50;5077398;28;20127;-89
2022/09/05 02:44:56;;;;;;;13.95;5.90;;;;;;;15.94;81.66;101688.41;5077637;28;20044;-89
2022/09/05 02:47:33;;;;;;;7.47;4.97;;;;;;;15.92;82.05;101693.25;5077352;28;20028;-89
2022/09/05 02:50:21;;;;;;;10.18;5.10;;;;;;;15.91;81.01;101693.47;5077868;28;20078;-89
2022/09/05 02:52:51;;;;;;;9.65;5.28;;;;;;;15.86;81.97;101690.59;5077166;28;20027;-89
2022/09/05 02:55:38;;;;;;;8.60;5.10;;;;;;;15.86;82.14;101698.81;5077420;28;20032;-89
2022/09/05 02:58:28;;;;;;;10.00;5.90;;;;;;;15.81;82.33;101693.19;5077739;28;20030;-88
2022/09/05 03:01:08;;;;;;;15.63;5.20;;;;;;;15.75;81.89;101681.22;5077268;28;20024;-89
2022/09/05 03:03:55;;;;;;;11.75;5.60;;;;;;;15.78;81.80;101689.00;5076555;28;20089;-89
2022/09/05 03:06:34;;;;;;;8.43;5.68;;;;;;;15.76;83.02;101691.09;5077215;28;20042;-89
2022/09/05 03:09:16;;;;;;;10.75;5.43;;;;;;;15.75;82.28;101689.44;5077250;28;20469;-89
2022/09/05 03:12:20;;;;;;;11.60;6.10;;;;;;;15.76;82.33;101689.19;5076897;28;20385;-88
2022/09/05 03:14:57;;;;;;;6.43;4.90;;;;;;;15.74;82.61;101685.03;5077055;28;20043;-88
2022/09/05 03:18:00;;;;;;;8.15;5.30;;;;;;;15.74;82.60;101690.50;5077302;28;20040;-88
2022/09/05 03:20:39;;;;;;;10.73;5.47;;;;;;;15.70;82.78;101686.56;5076739;28;20111;-88
2022/09/05 03:23:37;;;;;;;9.32;5.47;;;;;;;15.69;82.43;101691.19;5077298;28;20038;-88
2022/09/05 03:26:21;;;;;;;14.00;5.60;;;;;;;15.69;82.09;101684.88;5076404;28;20024;-88
2022/09/05 03:28:56;;;;;;;9.23;5.50;;;;;;;15.68;82.13;101688.66;5076682;28;20032;-88
2022/09/05 03:31:59;;;;;;;10.55;5.57;;;;;;;15.68;82.58;101684.06;5076892;28;20024;-88
2022/09/05 03:34:55;;;;;;;8.98;5.68;;;;;;;15.64;83.22;101682.00;5077553;28;20066;-88
2022/09/05 03:37:32;;;;;;;6.82;5.10;;;;;;;15.63;83.04;101681.16;5077486;28;20031;-89
2022/09/05 03:40:13;;;;;;;9.02;5.32;;;;;;;15.62;82.57;101682.25;5076500;28;20435;-88
2022/09/05 03:42:47;;;;;;;7.83;5.37;;;;;;;15.61;82.92;101689.59;5075918;28;20058;-89
2022/09/05 03:45:39;;;;;;;11.23;5.18;;;;;;;15.55;82.41;101690.50;5076443;28;20028;-89
2022/09/05 03:48:38;;;;;;;13.75;6.10;;;;;;;15.52;81.58;101695.63;5073232;28;20028;-89
2022/09/05 03:51:29;;;;;;;12.93;6.00;;;;;;;15.54;81.48;101690.75;5076262;28;20047;-89
2022/09/05 03:54:29;;;;;;;10.13;5.18;;;;;;;15.53;82.65;101681.72;5075919;28;20030;-88
2022/09/05 03:57:09;;;;;;;8.33;5.13;;;;;;;15.50;81.90;101682.16;5076415;28;20055;-88
2022/09/05 03:59:53;;;;;;;8.25;5.28;;;;;;;15.53;82.62;101684.44;5076084;28;20028;-88
2022/09/05 04:02:24;;;;;;;7.95;5.65;;;;;;;15.48;82.59;101683.47;5075721;28;20028;-88
2022/09/05 04:04:53;;;;;;;7.80;5.38;;;;;;;15.46;83.20;101680.94;5076079;28;20028;-89
2022/09/05 04:07:41;;;;;;;10.02;5.95;;;;;;;15.45;83.50;101679.25;5075790;28;20393;-89
2022/09/05 04:10:35;;;;;;;8.77;5.77;;;;;;;15.42;83.05;101688.75;5076249;28;20461;-89
2022/09/05 04:13:03;;;;;;;8.88;5.55;;;;;;;15.42;83.91;101690.66;5076235;28;20126;-88
2022/09/05 04:15:32;;;;;;;6.70;5.22;;;;;;;15.38;84.64;101695.75;5075944;28;20028;-88
2022/09/05 04:18:03;;;;;;;8.60;5.53;;;;;;;15.37;83.35;101693.25;5075813;28;20035;-88
2022/09/05 04:20:38;;;;;;;8.88;6.10;;;;;;;15.34;83.31;101688.22;5076005;28;20165;-88
2022/09/05 04:23:25;;;;;;;7.53;5.60;;;;;;;15.35;83.18;101689.91;5076021;28;20028;-88
2022/09/05 04:26:20;;;;;;;7.90;4.97;;;;;;;15.33;83.53;101686.56;5076229;28;20042;-88
2022/09/05 04:28:59;;;;;;;9.10;5.20;;;;;;;15.31;84.17;101689.53;5075782;28;20028;-88
2022/09/05 04:31:35;;;;;;;11.85;5.18;;;;;;;15.32;84.13;101685.72;5075526;28;20070;-88
2022/09/05 04:34:27;;;;;;;9.60;5.55;;;;;;;15.31;83.71;101686.78;5075237;28;20047;-88
2022/09/05 04:37:30;;;;;;;8.23;5.40;;;;;;;15.31;83.72;101688.66;5074650;28;20032;-88
2022/09/05 04:39:55;;;;;;;11.80;5.75;;;;;;;15.32;85.32;101691.19;5093668;28;20031;-88
2022/09/05 04:42:27;;;;;;;8.23;5.40;;;;;;;15.30;84.48;101690.56;5075300;28;20048;-88
2022/09/05 04:45:09;;;;;;;9.77;5.77;;;;;;;15.26;84.19;101695.69;5075608;28;20286;-88
2022/09/05 04:47:37;;;;;;;8.30;5.32;;;;;;;15.25;84.69;101699.47;5075590;28;20043;-88
2022/09/05 04:50:14;;;;;;;8.30;5.95;;;;;;;15.25;84.43;101701.34;5075075;28;20039;-88
2022/09/05 04:53:01;;;;;;;9.32;6.18;;;;;;;15.20;84.35;101710.22;5093585;28;20028;-88
2022/09/05 04:55:31;;;;;;;9.18;6.18;;;;;;;15.10;83.91;101707.16;5093508;28;20024;-88
2022/09/05 04:58:12;;;;;;;10.43;6.07;;;;;;;15.10;84.34;101704.44;5075303;28;20389;-88
2022/09/05 05:01:00;;;;;;;10.93;5.95;;;;;;;15.08;83.71;101712.88;5075263;28;20036;-87
2022/09/05 05:03:33;;;;;;;10.52;6.18;;;;;;;15.11;84.04;101714.31;5075909;28;20035;-88
2022/09/05 05:06:01;;;;;;;12.95;6.60;;;;;;;15.12;84.80;101709.69;5079516;28;20081;-88
2022/09/05 05:08:59;;;;;;;11.25;6.20;;;;;;;15.14;83.83;101715.78;5079200;28;20028;-88
2022/09/05 05:11:52;;;;;;;11.07;6.20;;;;;;;15.12;84.43;101718.72;5051620;28;20040;-88
2022/09/05 05:14:27;;;;;;;9.30;6.43;;;;;;;15.12;85.30;101716.00;5079160;28;20028;-88
2022/09/05 05:17:25;;;;;;;10.55;6.10;;;;;;;15.14;84.15;101715.78;5079442;28;20028;-89
2022/09/05 05:20:19;;;;;;;10.25;6.38;;;;;;;15.18;84.59;101709.63;5066338;28;20499;-88
2022/09/05 05:22:52;;;;;;;8.35;6.22;;;;;;;15.21;84.95;101720.09;5061665;28;20063;-88
2022/09/05 05:25:18;;;;;;;8.93;5.90;;;;;;;15.26;85.34;101720.28;5079752;28;20028;-89
2022/09/05 05:28:20;;;;;;;12.45;6.50;;;;;;;15.30;84.19;101719.84;5078770;28;20032;-87
2022/09/05 05:30:46;;;;;;;10.10;6.10;;;;;;;15.34;84.20;101730.09;5078811;28;20479;-89
2022/09/05 05:33:32;;;;;;;10.50;6.50;;;;;;;15.39;83.88;101722.03;5078357;28;20111;-89
2022/09/05 05:36:00;;;;;;;10.32;6.40;;;;;;;15.43;84.80;101720.50;5096960;28;20032;-89
2022/09/05 05:39:01;;;;;;;13.57;6.78;;;;;;;15.50;84.57;101720.47;5078401;28;20052;-89
2022/09/05 05:41:47;;;;;;;12.63;7.10;;;;;;;15.53;83.36;101724.63;5060520;28;20040;-89
2022/09/05 05:44:20;;;;;;;11.95;6.60;;;;;;;15.61;83.84;101718.84;5078524;28;20127;-87
2022/09/05 05:46:57;;;;;;;11.82;6.97;;;;;;;15.67;82.94;101719.84;5078680;28;20040;-89
2022/09/05 05:49:53;;;;;;;14.23;7.90;;;;;;;15.73;82.06;101722.50;5078649;28;20074;-89
2022/09/05 05:52:37;;;;;;;13.48;8.07;;;;;;;15.83;81.88;101724.72;5078194;28;20465;-88
2022/09/05 05:55:29;;;;;;;15.50;7.70;;;;;;;15.93;83.04;101732.41;5078286;28;20028;-87
2022/09/05 05:58:18;;;;;;;12.05;7.22;;;;;;;16.02;81.42;101733.75;5054566;28;20039;-88
2022/09/05 06:01:06;;;;;;;10.07;7.60;;;;;;;16.10;81.02;101733.44;5077894;28;20020;-88
2022/09/05 06:04:03;;;;;;;12.45;7.55;;;;;;;16.20;80.25;101732.88;5078187;28;20036;-88
2022/09/05 06:07:01;;;;;;;11.82;8.43;;;;;;;16.31;80.00;101737.59;5096683;28;20024;-88
2022/09/05 06:09:48;;;;;;;10.87;7.00;;;;;;;16.46;79.60;101744.53;5078427;28;20028;-88
2022/09/05 06:12:35;;;;;;;13.68;7.82;;;;;;;16.57;79.30;101740.16;5077792;28;20078;-88
2022/09/05 06:15:28;;;;;;;11.80;8.00;;;;;;;16.69;78.71;101748.41;5077281;28;20121;-88
2022/09/05 06:18:03;;;;;;;14.20;7.95;;;;;;;16.84;78.07;101755.13;5077832;28;20134;-87
2022/09/05 06:21:10;;;;;;;12.00;8.05;;;;;;;16.97;77.37;101754.09;5077510;28;20035;-88
2022/09/05 06:24:06;;;;;;;15.33;8.27;;;;;;;17.14;76.78;101754.25;5053964;28;20036;-87
2022/09/05 06:26:50;;;;;;;12.82;8.18;;;;;;;17.29;76.42;101752.94;5077501;28;20040;-87
2022/09/05 06:29:34;;;;;;;12.25;8.02;;;;;;;17.44;75.45;101749.72;5095854;28;20047;-87
2022/09/05 06:32:37;;;;;;;16.25;8.05;;;;;;;17.59;74.88;101749.22;5077154;28;20389;-88
2022/09/05 06:35:21;;;;;;;9.23;7.63;;;;;;;17.77;73.93;101746.31;5077678;28;20028;-87
2022/09/05 06:38:15;;;;;;;12.27;7.80;;;;;;;17.94;73.05;101742.84;5077440;28;20024;-87
2022/09/05 06:41:19;;;;;;;12.02;7.40;;;;;;;18.11;72.99;101749.22;5095512;28;20505;-88
2022/09/05 06:43:53;;;;;;;14.43;8.77;;;;;;;18.30;70.78;101747.13;5063564;28;20086;-87
2022/09/05 06:46:34;;;;;;;9.20;8.02;;;;;;;18.45;71.05;101752.06;5077439;28;20043;-87
2022/09/05 06:49:25;;;;;;;12.52;7.82;;;;;;;18.61;70.11;101744.13;5077091;28;20446;-88
2022/09/05 06:52:17;;;;;;;12.10;8.40;;;;;;;18.73;69.53;101743.00;5077741;28;20078;-87
2022/09/05 06:55:15;;;;;;;12.35;7.68;;;;;;;18.87;68.81;101746.25;5077261;28;20031;-87
2022/09/05 06:57:53;;;;;;;9.07;7.20;;;;;;;18.99;67.87;101737.94;5077186;28;20040;-87
2022/09/05 07:00:22;;;;;;;10.73;7.40;;;;;;;19.09;66.34;101742.78;5076974;28;20060;-88
2022/09/05 07:03:15;;;;;;;11.68;6.50;;;;;;;19.21;66.15;101748.19;5077365;28;20060;-87
2022/09/05 07:06:06;;;;;;;12.87;6.40;;;;;;;19.29;66.33;101753.25;5095181;28;20204;-87
2022/09/05 07:09:01;;;;;;;13.05;6.63;;;;;;;19.40;65.07;101760.56;5073375;28;20032;-88
2022/09/05 07:11:48;;;;;;;10.68;6.00;;;;;;;19.53;64.80;101764.03;5076369;28;20024;-88
2022/09/05 07:14:25;;;;;;;9.90;5.38;;;;;;;19.64;64.08;101758.41;5077226;28;20074;-87
2022/09/05 07:17:08;;;;;;;9.98;5.65;;;;;;;19.78;64.03;101758.06;5076799;28;20100;-88
2022/09/05 07:19:48;;;;;;;8.53;5.10;;;;;;;19.87;63.10;101755.72;5095331;28;20032;-87
2022/09/05 07:22:31;;;;;;;13.30;5.28;;;;;;;19.94;62.71;101754.44;5076742;28;20056;-88
2022/09/05 07:25:00;;;;;;;11.27;5.13;;;;;;;20.01;61.78;101757.00;5077007;28;20062;-87
2022/09/05 07:28:09;;;;;;;7.85;4.25;;;;;;;20.09;61.74;101762.06;5094688;28;20115;-88
2022/09/05 07:30:49;;;;;;;9.73;4.22;;;;;;;20.26;60.48;101763.91;5076439;28;20085;-88
2022/09/05 07:33:27;;;;;;;6.50;3.53;;;;;;;20.39;59.07;101759.88;5076379;28;20042;-88
2022/09/05 07:35:59;;;;;;;7.10;3.35;;;;;;;20.55;57.57;101764.50;5094708;28;20530;-88
2022/09/05 07:38:50;;;;;;;5.53;3.10;;;;;;;20.71;58.76;101765.47;5076247;28;20035;-88
2022/09/05 07:41:25;;;;;;;4.55;2.90;;;;;;;20.86;57.37;101770.34;5094516;28;20110;-88
2022/09/05 07:44:01;;;;;;;8.10;3.10;;;;;;;20.96;56.47;101769.56;5076366;28;20056;-88
2022/09/05 07:46:31;;;;;;;5.90;3.13;;;;;;;21.09;55.84;101774.63;5076302;28;20028;-89
2022/09/05 07:49:08;;;;;;;6.03;2.90;;;;;;;21.24;56.31;101778.63;5076133;28;20114;-88
2022/09/05 07:51:36;;;;;;;8.05;3.15;;;;;;;21.37;55.97;101778.16;5076158;28;20020;-88
2022/09/05 07:54:19;;;;;;;6.85;3.47;;;;;;;21.49;55.98;101777.94;5094095;28;20418;-88
2022/09/05 07:57:02;;;;;;;6.00;3.20;;;;;;;21.63;55.49;101772.81;5076590;28;20024;-88
2022/09/05 07:59:31;;;;;;;4.93;2.70;;;;;;;21.80;53.78;101784.50;5076885;28;20028;-87
2022/09/05 08:01:58;;;;;;;6.13;3.03;;;;;;;21.94;53.77;101789.53;5075414;28;20028;-88
2022/09/05 08:04:25;;;;;;;5.05;2.97;;;;;;;22.08;52.62;101779.66;5075842;28;20021;-88
2022/09/05 08:06:58;;;;;;;7.07;2.88;;;;;;;22.20;52.55;101779.41;5075964;28;20212;-88
2022/09/05 08:09:30;;;;;;;6.97;2.88;;;;;;;22.35;51.71;101778.66;5076061;28;20097;-88
2022/09/05 08:12:02;;;;;;;9.37;2.67;;;;;;;22.50;52.33;101778.72;5075728;28;20098;-88
2022/09/05 08:14:42;;;;;;;3.88;2.42;;;;;;;22.62;52.86;101769.31;5075504;28;20396;-88
2022/09/05 08:17:16;;;;;;;3.55;2.65;;;;;;;22.76;50.78;101775.97;5075879;28;20027;-88
2022/09/05 08:19:42;;;;;;;5.75;2.83;;;;;;;22.89;50.51;101772.66;5094069;28;20028;-88
2022/09/05 08:22:14;;;;;;;8.67;2.67;;;;;;;23.01;50.86;101772.38;5075611;28;20080;-88
2022/09/05 08:25:14;;;;;;;6.82;2.70;;;;;;;23.11;50.78;101780.72;5075397;28;20532;-88
2022/09/05 08:28:05;;;;;;;8.68;2.58;;;;;;;23.22;50.24;101775.16;5070771;28;20058;-88
2022/09/05 08:30:52;;;;;;;6.50;2.57;;;;;;;23.32;50.02;101777.91;5075477;28;20046;-88
2022/09/05 08:33:42;;;;;;;5.93;2.60;;;;;;;23.41;50.32;101772.66;5075136;28;20377;-88
2022/09/05 08:36:22;;;;;;;4.43;2.70;;;;;;;23.52;50.03;101778.97;5075509;28;20072;-88
2022/09/05 08:38:53;;;;;;;4.28;2.70;;;;;;;23.61;48.80;101780.09;5075397;28;20032;-88
2022/09/05 08:41:27;;;;;;;5.55;2.63;;;;;;;23.68;49.56;101777.88;5093494;28;20533;-89
2022/09/05 08:44:06;;;;;;;6.13;2.50;;;;;;;23.80;48.66;101781.13;5093648;28;20482;-88
2022/09/05 08:46:54;;;;;;;7.18;2.55;;;;;;;23.86;49.04;101781.13;5075492;28;20020;-88
2022/09/05 08:49:32;;;;;;;3.60;2.53;;;;;;;23.94;47.82;101775.84;5075316;28;20030;-88
2022/09/05 08:55:48;;;;;;;6.40;2.55;;;;;;;24.04;48.14;101763.88;5011351;28;20448;-88
2022/09/05 08:58:45;;;;;;;5.97;2.40;;;;;;;24.10;47.55;101759.97;4994924;28;20038;-89
2022/09/05 09:01:25;;;;;;;6.05;2.53;;;;;;;24.13;47.48;101756.63;5059417;28;20047;-88
2022/09/05 09:04:27;;;;;;;8.02;2.88;;;;;;;24.20;47.40;101759.09;5074832;28;20096;-88
2022/09/05 09:07:08;;;;;;;7.22;2.50;;;;;;;24.30;46.65;101760.97;5070479;28;20050;-87
2022/09/05 09:09:55;;;;;;;5.97;2.53;;;;;;;24.30;46.82;101755.41;5075164;28;20043;-85
2022/09/05 09:12:51;;;;;;;5.90;2.73;;;;;;;24.35;46.38;101753.44;5093157;28;20028;-81
2022/09/05 09:15:16;;;;;;;6.30;2.50;;;;;;;24.44;45.81;101752.84;5075532;28;20070;-86
2022/09/05 09:18:18;;;;;;;5.60;2.77;;;;;;;24.49;46.24;101745.31;5075184;28;20036;-85
2022/09/05 09:21:21;;;;;;;8.65;2.78;;;;;;;24.61;46.04;101753.31;5058415;28;20047;-87
2022/09/05 09:24:06;;;;;;;5.13;2.63;;;;;;;24.78;45.64;101750.13;5075320;28;20036;-87
2022/09/05 09:26:50;;;;;;;5.85;2.40;;;;;;;24.85;44.96;101741.47;5074877;28;20062;-86
2022/09/05 09:29:17;;;;;;;4.70;2.20;;;;;;;24.98;42.30;101742.72;5075019;28;20051;-87
2022/09/05 09:32:08;;;;;;;2.70;2.10;;;;;;;25.11;42.99;101744.81;5074857;28;20030;-87
2022/09/05 09:35:03;;;;;;;5.32;2.28;;;;;;;25.27;42.97;101739.13;5075032;28;20028;-87
2022/09/05 09:37:58;;;;;;;4.65;2.33;;;;;;;25.38;42.75;101738.75;5093320;28;20024;-87
2022/09/05 09:40:53;;;;;;;4.40;2.15;;;;;;;25.46;41.65;101737.28;5075188;28;20081;-87
2022/09/05 09:43:26;;;;;;;5.03;2.53;;;;;;;25.63;41.96;101739.59;5093154;28;20091;-87
2022/09/05 09:46:29;;;;;;;3.37;2.07;;;;;;;25.78;42.25;101735.81;5093049;28;20477;-87
2022/09/05 09:49:32;;;;;;;5.38;2.50;;;;;;;25.94;42.21;101741.16;5074921;28;20028;-87
2022/09/05 09:52:25;;;;;;;5.65;2.88;;;;;;;26.10;41.85;101731.50;5078620;28;20503;-93
2022/09/05 09:55:29;;;;;;;3.65;2.35;;;;;;;26.20;40.50;101734.13;5078308;28;20520;-92
2022/09/05 09:58:40;;;;;;;;;;;;;;;;;;;;;
2022/09/05 10:05:18;;;;;;;;;;;;;;;;;;;;;
2022/09/05 10:07:58;;;;;;;7.80;2.30;;;;;;;26.69;36.91;101725.63;5014991;28;20030;-91
2022/09/05 10:10:38;;;;;;;5.30;2.30;;;;;;;26.81;37.03;101731.56;4997978;28;20034;-93
2022/09/05 10:14:06;;;;;;;4.43;2.22;;;;;;;26.88;38.00;101711.69;4999100;28;20034;-89
2022/09/05 10:23:38;;;;;;;6.30;2.50;;;;;;;27.27;37.64;101705.66;4975731;28;20047;-94
2022/09/05 10:26:38;;;;;;;6.13;2.60;;;;;;;27.44;36.95;101710.63;5037285;28;20029;-94
2022/09/05 10:30:21;;;;;;;3.95;2.30;;;;;;;27.64;36.97;101703.81;5038001;28;20025;-94
2022/09/05 10:36:53;;;;;;;;;;;;;;;;;;;;;
2022/09/05 10:39:39;;;;;;;4.18;2.30;;;;;;;28.44;34.11;101694.25;5015160;28;20056;-89
2022/09/05 10:42:38;;;;;;;3.10;2.08;;;;;;;28.62;34.31;101686.84;5077292;28;20079;-90
2022/09/05 10:45:37;;;;;;;5.70;2.10;;;;;;;28.78;32.34;101682.53;5077850;28;20032;-89
2022/09/05 10:48:52;;;;;;;3.83;1.87;;;;;;;28.90;33.57;101695.91;5059041;28;20123;-90
2022/09/05 10:51:44;;;;;;;2.22;1.98;;;;;;;28.96;32.91;101688.22;5017810;28;20036;-90
2022/09/05 10:54:53;;;;;;;2.78;1.88;;;;;;;29.09;33.06;101686.47;5077217;28;20028;-90
2022/09/05 10:57:47;;;;;;;3.33;2.17;;;;;;;29.25;31.55;101684.06;5076482;28;20461;-90
2022/09/05 11:00:50;;;;;;;4.03;2.10;;;;;;;29.39;32.50;101682.00;5077039;28;20126;-90
2022/09/05 11:03:32;;;;;;;3.10;2.30;;;;;;;29.58;32.20;101676.13;5076542;28;20418;-90
2022/09/05 11:09:32;;;;;;;4.93;2.20;;;;;;;30.04;30.40;101668.31;5094907;28;20036;-89
2022/09/05 11:12:28;;;;;;;2.50;2.08;;;;;;;30.71;31.16;101666.97;5073048;28;20044;-90
2022/09/05 11:15:31;;;;;;;3.45;2.38;;;;;;;32.27;28.21;101651.59;5076775;28;20028;-90
2022/09/05 11:18:12;;;;;;;5.50;1.97;;;;;;;34.68;25.34;101662.13;5063018;28;20108;-89
2022/09/05 11:20:55;;;;;;;3.50;2.40;;;;;;;37.51;22.00;101659.16;5095078;28;20093;-89
2022/09/05 11:23:45;;;;;;;2.70;2.50;;;;;;;38.92;20.39;101645.47;5077094;28;20130;-89
2022/09/05 11:26:41;;;;;;;3.08;2.42;;;;;;;40.33;20.36;101652.75;5076510;28;20111;-90
2022/09/05 11:29:23;;;;;;;2.88;2.67;;;;;;;41.11;18.45;101649.59;5068101;28;20401;-90
2022/09/05 11:32:14;;;;;;;5.33;2.80;;;;;;;42.75;18.25;101641.56;5076352;28;20028;-90
2022/09/05 11:35:13;;;;;;;6.25;3.55;;;;;;;45.25;15.27;101631.31;5076057;28;20031;-89
2022/09/05 11:37:59;;;;;;;6.30;3.45;;;;;;;46.93;15.14;101634.47;5076538;28;20032;-88
2022/09/05 11:40:30;;;;;;;4.40;3.60;;;;;;;47.67;11.63;101625.50;5076522;28;20557;-87
2022/09/05 11:43:11;;;;;;;4.50;3.90;;;;;;;48.16;13.08;101621.56;5076103;28;20048;-88
2022/09/05 11:46:03;;;;;;;5.47;3.90;;;;;;;48.08;13.49;101610.28;5076363;28;20127;-88
2022/09/05 11:48:59;;;;;;;5.25;4.10;;;;;;;49.61;12.48;101609.50;5076502;28;20106;-89
2022/09/05 11:52:06;;;;;;;;;;;;;;;;;;;;;
2022/09/05 11:55:14;;;;;;;5.75;5.07;;;;;;;50.90;11.73;101607.03;5094399;28;20038;-89
2022/09/05 11:58:03;;;;;;;6.05;5.25;;;;;;;51.09;11.54;101609.13;5075817;28;20036;-89
2022/09/05 12:00:41;;;;;;;6.03;5.63;;;;;;;51.56;9.75;101597.03;5076079;28;20039;-89
2022/09/05 12:03:44;;;;;;;5.93;5.50;;;;;;;52.71;9.65;101612.88;5075523;28;20024;-89
2022/09/05 12:06:26;;;;;;;6.65;6.05;;;;;;;52.92;10.02;101605.13;5075910;28;20086;-89
2022/09/05 12:09:09;;;;;;;6.82;6.40;;;;;;;54.45;9.50;101594.00;5075939;28;20036;-89
2022/09/05 12:11:58;;;;;;;7.30;6.78;;;;;;;53.90;8.43;101588.97;5075906;28;20469;-89
2022/09/05 12:14:51;;;;;;;7.63;7.07;;;;;;;54.93;8.79;101589.03;5074920;28;20079;-89
2022/09/05 12:17:29;;;;;;;7.55;6.95;;;;;;;55.13;7.57;101568.66;5075961;28;20074;-89
2022/09/05 12:20:22;;;;;;;9.10;8.35;;;;;;;55.93;8.50;101572.19;5076165;28;20466;-89
2022/09/05 12:23:38;;;;;;;8.60;7.90;;;;;;;55.79;8.11;101566.03;5075226;28;20032;-89
2022/09/05 12:26:39;;;;;;;8.73;7.95;;;;;;;56.18;8.07;101561.78;5075528;28;20131;-89
2022/09/05 12:29:33;;;;;;;8.93;8.33;;;;;;;57.05;7.69;101560.22;5075309;28;20075;-90
2022/09/05 12:32:08;;;;;;;10.75;9.95;;;;;;;57.02;6.21;101555.44;5075739;28;20036;-90
2022/09/05 12:35:11;;;;;;;;;;;;;;;;;;;;;
2022/09/05 12:38:07;;;;;;;12.32;11.43;;;;;;;58.50;6.82;101558.13;5093733;28;20024;-90
2022/09/05 12:40:52;;;;;;;13.88;12.90;;;;;;;58.26;5.34;101548.66;5050776;28;20033;-90
2022/09/05 12:43:28;;;;;;;14.30;13.20;;;;;;;57.62;6.27;101548.56;5021930;28;20446;-91
2022/09/05 12:46:56;;;;;;;12.05;11.35;;;;;;;54.63;7.46;101537.75;5003294;28;20057;-90
2022/09/05 12:49:36;;;;;;;11.82;11.05;;;;;;;53.41;7.29;101533.38;5006672;28;20449;-90
2022/09/05 12:52:41;;;;;;;10.18;9.48;;;;;;;54.88;8.12;101531.66;5014388;28;20128;-90
2022/09/05 12:55:23;;;;;;;10.95;10.05;;;;;;;55.66;7.05;101530.78;5002726;28;20120;-90
2022/09/05 12:58:16;;;;;;;11.63;10.63;;;;;;;56.31;6.71;101527.19;5014509;28;20076;-90
2022/09/05 13:01:12;;;;;;;12.40;11.40;;;;;;;56.96;6.78;101521.81;5014166;28;20048;-90
2022/09/05 13:07:41;;;;;;;14.82;13.00;;;;;;;58.13;5.73;101525.91;5052383;28;20043;-90
2022/09/05 13:10:40;;;;;;;;;;;;;;;;;;;;;
2022/09/05 13:13:15;;;;;;;13.70;12.90;;;;;;;56.17;5.63;101514.41;5053648;28;20483;-91
2022/09/05 13:15:53;;;;;;;13.30;12.50;;;;;;;56.56;6.38;101516.66;5051670;28;20112;-91
2022/09/05 13:19:05;;;;;;;;;;;;;;;;;;;;;
2022/09/05 13:21:59;;;;;;;13.93;13.00;;;;;;;58.14;5.92;101507.03;5046233;28;20409;-91
2022/09/05 13:24:37;;;;;;;15.48;14.32;;;;;;;58.42;5.25;101508.22;5052511;28;20044;-91
2022/09/05 13:27:28;;;;;;;;;;;;;;;;;;;;;
2022/09/05 13:30:30;;;;;;;;;;;;;;;;;;;;;
2022/09/05 13:33:47;;;;;;;;;;;;;;;;;;;;;